Time;durP1;ratioP1;P1;durP2;ratioP2;P2;SDS_P1;SDS_P2;PMS_P1;PMS_P2;Temp;Humidity;BMP_temperature;BMP_pressure;BME280_temperature;BME280_humidity;BME280_pressure;Samples;Min_cycle;Max_cycle;Signal;HPM_P1;HPM_P2
2021/11/26 00:02:22;;;;;;;25.40;15.67;;;6.70;99.90;;;;;;5015913;28;20467;-82
2021/11/26 00:04:49;;;;;;;29.03;14.90;;;6.70;99.90;;;;;;5030819;28;20257;-83
2021/11/26 00:07:14;;;;;;;27.37;15.00;;;6.70;99.90;;;;;;5015369;28;20416;-82
2021/11/26 00:09:40;;;;;;;33.90;17.83;;;6.70;99.90;;;;;;5015237;28;20767;-82
2021/11/26 00:12:06;;;;;;;33.30;16.43;;;6.70;99.90;;;;;;5013726;28;20902;-83
2021/11/26 00:14:34;;;;;;;37.60;17.17;;;6.60;99.90;;;;;;5015411;28;20488;-82
2021/11/26 00:17:02;;;;;;;29.93;16.40;;;6.60;99.90;;;;;;5015241;28;20505;-81
2021/11/26 00:19:29;;;;;;;30.10;17.00;;;6.60;99.90;;;;;;5014346;28;20822;-82
2021/11/26 00:21:55;;;;;;;37.23;17.23;;;6.70;99.90;;;;;;5029660;28;20426;-81
2021/11/26 00:24:22;;;;;;;35.63;17.10;;;6.60;99.90;;;;;;5014612;28;20426;-81
2021/11/26 00:26:49;;;;;;;32.57;17.50;;;6.60;99.90;;;;;;5029699;28;20481;-81
2021/11/26 00:29:14;;;;;;;34.33;18.17;;;6.60;99.90;;;;;;5029322;28;20448;-82
2021/11/26 00:31:41;;;;;;;30.97;16.30;;;6.60;99.90;;;;;;5029165;28;20427;-82
2021/11/26 00:34:06;;;;;;;37.60;18.10;;;6.60;99.90;;;;;;5012912;28;20198;-81
2021/11/26 00:36:33;;;;;;;33.43;16.40;;;6.60;99.90;;;;;;5029703;28;20419;-82
2021/11/26 00:38:59;;;;;;;30.40;17.43;;;6.60;99.90;;;;;;5029642;28;20191;-81
2021/11/26 00:41:25;;;;;;;30.57;17.07;;;6.70;99.90;;;;;;5029320;28;20915;-82
2021/11/26 00:43:51;;;;;;;32.03;16.40;;;6.70;99.90;;;;;;5029284;28;20443;-81
2021/11/26 00:46:17;;;;;;;37.50;19.37;;;6.70;99.90;;;;;;5029487;28;20179;-80
2021/11/26 00:48:43;;;;;;;33.03;19.00;;;6.60;99.90;;;;;;5014550;28;20496;-83
2021/11/26 00:51:10;;;;;;;40.70;19.73;;;6.60;99.90;;;;;;5014339;28;20441;-80
2021/11/26 00:53:36;;;;;;;35.60;20.60;;;6.60;99.90;;;;;;5013444;28;20219;-82
2021/11/26 00:56:02;;;;;;;37.77;18.63;;;6.60;99.90;;;;;;5029176;28;20435;-81
2021/11/26 00:58:27;;;;;;;33.53;19.60;;;6.50;99.90;;;;;;5028910;28;20423;-82
2021/11/26 01:00:53;;;;;;;33.33;17.60;;;6.60;99.90;;;;;;5028905;28;20458;-82
2021/11/26 01:03:19;;;;;;;33.57;17.57;;;6.60;99.90;;;;;;5013416;28;20200;-82
2021/11/26 01:05:46;;;;;;;33.43;17.40;;;6.60;99.90;;;;;;5013724;28;20223;-82
2021/11/26 01:08:12;;;;;;;30.30;16.63;;;6.60;99.90;;;;;;5013550;28;20582;-82
2021/11/26 01:10:37;;;;;;;29.63;16.43;;;6.60;99.90;;;;;;5028574;28;20465;-81
2021/11/26 01:13:03;;;;;;;32.40;16.97;;;6.50;99.90;;;;;;5028385;28;20233;-82
2021/11/26 01:15:31;;;;;;;34.73;18.07;;;6.60;99.90;;;;;;5012116;28;20177;-83
2021/11/26 01:18:00;;;;;;;31.23;17.90;;;6.50;99.90;;;;;;5028380;28;20649;-82
2021/11/26 01:20:28;;;;;;;32.63;17.77;;;6.50;99.90;;;;;;5011930;28;20520;-81
2021/11/26 01:22:54;;;;;;;33.50;18.07;;;6.40;99.90;;;;;;5028184;28;20475;-81
2021/11/26 01:25:20;;;;;;;32.13;18.67;;;6.40;99.90;;;;;;5028370;28;20953;-81
2021/11/26 01:27:47;;;;;;;38.77;17.83;;;6.50;99.90;;;;;;5013451;28;20446;-82
2021/11/26 01:30:37;;;;;;;33.43;19.80;;;6.40;99.90;;;;;;5013010;28;20416;-82
2021/11/26 01:33:08;;;;;;;44.10;17.43;;;6.50;99.90;;;;;;5028458;28;20440;-80
2021/11/26 01:35:34;;;;;;;35.20;18.60;;;6.40;99.90;;;;;;5013213;28;20403;-81
2021/11/26 01:38:00;;;;;;;32.43;18.07;;;6.50;99.90;;;;;;5028375;28;20430;-81
2021/11/26 01:40:27;;;;;;;34.70;17.60;;;6.50;99.90;;;;;;5012671;28;20481;-81
2021/11/26 01:42:54;;;;;;;31.70;16.07;;;6.60;99.90;;;;;;5028400;28;20212;-81
2021/11/26 01:45:20;;;;;;;32.53;16.87;;;6.60;99.90;;;;;;5010930;28;20424;-81
2021/11/26 01:47:46;;;;;;;29.50;17.47;;;6.60;99.90;;;;;;5013115;28;20437;-81
2021/11/26 01:50:13;;;;;;;30.73;16.30;;;6.60;99.90;;;;;;5027821;28;20423;-81
2021/11/26 01:52:39;;;;;;;33.47;17.50;;;6.60;99.90;;;;;;5012769;28;20525;-82
2021/11/26 01:55:06;;;;;;;37.93;16.90;;;6.50;99.90;;;;;;5011695;28;20432;-81
2021/11/26 01:57:33;;;;;;;28.23;15.33;;;6.50;99.90;;;;;;5012772;28;20184;-81
2021/11/26 01:59:58;;;;;;;26.23;15.37;;;6.40;99.90;;;;;;5027822;28;20510;-81
2021/11/26 02:02:24;;;;;;;26.57;14.03;;;6.40;99.90;;;;;;5012601;28;20475;-81
2021/11/26 02:04:50;;;;;;;28.50;16.50;;;6.40;99.90;;;;;;5027731;28;20181;-80
2021/11/26 02:07:15;;;;;;;33.27;16.53;;;6.30;99.90;;;;;;5028171;28;20176;-82
2021/11/26 02:09:41;;;;;;;24.77;13.77;;;6.30;99.90;;;;;;5027723;28;20423;-81
2021/11/26 02:12:08;;;;;;;30.23;14.07;;;6.20;99.90;;;;;;5027904;28;20711;-81
2021/11/26 02:14:34;;;;;;;27.03;14.50;;;6.10;99.90;;;;;;5027620;28;20841;-80
2021/11/26 02:16:59;;;;;;;22.50;15.07;;;6.10;99.90;;;;;;5012951;28;20417;-82
2021/11/26 02:19:26;;;;;;;24.40;15.90;;;5.90;99.90;;;;;;5012186;28;20454;-81
2021/11/26 02:21:52;;;;;;;33.80;14.83;;;5.90;99.90;;;;;;5027748;28;20176;-81
2021/11/26 02:24:18;;;;;;;26.93;13.27;;;5.70;99.90;;;;;;5027588;28;20457;-82
2021/11/26 02:26:46;;;;;;;29.23;15.27;;;5.70;99.90;;;;;;5012741;28;20407;-81
2021/11/26 02:29:15;;;;;;;32.50;14.53;;;5.70;99.90;;;;;;5012253;28;20216;-80
2021/11/26 02:31:41;;;;;;;25.93;13.10;;;5.70;99.90;;;;;;5011085;28;20647;-83
2021/11/26 02:34:06;;;;;;;24.83;13.73;;;5.70;99.90;;;;;;5027611;28;20430;-82
2021/11/26 02:36:32;;;;;;;25.40;12.83;;;5.80;99.90;;;;;;5027606;28;20536;-82
2021/11/26 02:38:58;;;;;;;29.37;15.30;;;5.80;99.90;;;;;;5027561;28;20192;-82
2021/11/26 02:41:23;;;;;;;22.07;13.47;;;5.80;99.90;;;;;;5027339;28;20272;-82
2021/11/26 02:43:50;;;;;;;24.47;12.53;;;5.80;99.90;;;;;;5027676;28;20262;-81
2021/11/26 02:46:16;;;;;;;23.73;14.50;;;5.80;99.90;;;;;;5027523;28;20188;-81
2021/11/26 02:48:41;;;;;;;24.07;11.47;;;5.80;99.90;;;;;;5011049;28;20434;-81
2021/11/26 02:51:07;;;;;;;31.97;14.83;;;5.80;99.90;;;;;;5027071;28;20197;-81
2021/11/26 02:53:33;;;;;;;29.03;13.93;;;5.80;99.90;;;;;;5027097;28;20229;-82
2021/11/26 02:55:59;;;;;;;27.63;14.33;;;5.80;99.90;;;;;;5029413;28;20188;-81
2021/11/26 02:58:24;;;;;;;30.20;13.70;;;5.90;99.90;;;;;;5031245;28;20989;-82
2021/11/26 03:00:54;;;;;;;31.43;16.00;;;5.90;99.90;;;;;;5030770;28;20715;-82
2021/11/26 03:03:20;;;;;;;24.77;14.20;;;5.80;99.90;;;;;;5031022;28;20265;-82
2021/11/26 03:05:46;;;;;;;20.40;12.33;;;5.80;99.90;;;;;;5015415;28;20423;-81
2021/11/26 03:08:12;;;;;;;28.37;12.33;;;5.90;99.90;;;;;;5030802;28;20276;-82
2021/11/26 03:10:38;;;;;;;24.37;14.97;;;5.90;99.90;;;;;;5030394;28;20426;-81
2021/11/26 03:13:07;;;;;;;23.87;12.03;;;5.90;99.90;;;;;;5014182;28;20964;-82
2021/11/26 03:15:35;;;;;;;25.43;13.80;;;5.90;99.90;;;;;;5015356;28;20425;-82
2021/11/26 03:18:02;;;;;;;23.13;13.33;;;5.90;99.90;;;;;;5030374;28;20433;-82
2021/11/26 03:20:29;;;;;;;24.70;14.30;;;5.90;99.90;;;;;;5029924;28;20973;-81
2021/11/26 03:22:55;;;;;;;24.23;15.90;;;5.90;99.90;;;;;;5030493;28;20446;-81
2021/11/26 03:25:21;;;;;;;25.63;14.03;;;5.90;99.90;;;;;;5030353;28;20938;-83
2021/11/26 03:27:47;;;;;;;21.67;12.50;;;5.90;99.90;;;;;;5015167;28;20418;-83
2021/11/26 03:30:16;;;;;;;29.10;14.27;;;5.80;99.90;;;;;;5030141;28;20421;-83
2021/11/26 03:32:42;;;;;;;23.50;13.80;;;5.80;99.90;;;;;;5030051;28;20457;-82
2021/11/26 03:35:08;;;;;;;19.63;12.93;;;5.80;99.90;;;;;;5030178;28;20945;-82
2021/11/26 03:37:35;;;;;;;20.97;12.10;;;5.90;99.90;;;;;;5014837;28;20513;-82
2021/11/26 03:40:03;;;;;;;23.90;12.50;;;5.80;99.90;;;;;;5029885;28;20800;-83
2021/11/26 03:42:29;;;;;;;27.30;13.90;;;5.90;99.90;;;;;;5014980;28;20436;-81
2021/11/26 03:44:54;;;;;;;28.10;15.53;;;5.90;99.90;;;;;;5015567;28;20426;-81
2021/11/26 03:47:20;;;;;;;22.80;11.37;;;6.00;99.90;;;;;;5013880;28;20835;-81
2021/11/26 03:49:46;;;;;;;23.53;13.40;;;5.90;99.90;;;;;;5030625;28;20222;-81
2021/11/26 03:52:12;;;;;;;19.30;12.30;;;6.00;99.90;;;;;;5015371;28;20211;-82
2021/11/26 03:54:59;;;;;;;;;;;;;;;;;;;;;
2021/11/26 04:04:56;;;;;;;21.80;12.20;;;5.80;99.90;;;;;;4888497;29;20453;-81
2021/11/26 04:07:51;;;;;;;21.27;12.90;;;5.90;99.90;;;;;;4918212;29;20414;-81
2021/11/26 04:10:33;;;;;;;20.03;12.27;;;5.90;99.90;;;;;;4953151;28;20918;-82
2021/11/26 04:13:46;;;;;;;20.77;12.27;;;5.90;99.90;;;;;;5012883;28;20807;-81
2021/11/26 04:30:00;;;;;;;16.50;11.10;;;5.90;99.90;;;;;;4992247;28;20522;-81
2021/11/26 04:36:58;;;;;;;27.37;12.13;;;5.90;99.90;;;;;;5015013;28;20394;-82
2021/11/26 04:42:59;;;;;;;18.90;12.60;;;5.90;99.90;;;;;;4993423;22;20522;-76
2021/11/26 04:45:24;;;;;;;19.60;12.70;;;5.80;99.90;;;;;;5031916;28;20441;-76
2021/11/26 04:47:50;;;;;;;19.47;12.80;;;5.80;99.90;;;;;;5031773;28;20186;-76
2021/11/26 04:50:16;;;;;;;18.50;12.47;;;5.80;99.90;;;;;;5031491;28;20326;-75
2021/11/26 04:52:42;;;;;;;23.53;13.03;;;5.70;99.90;;;;;;5031498;28;20186;-76
2021/11/26 04:55:09;;;;;;;17.33;12.10;;;5.60;99.90;;;;;;5053339;22;20501;-86
2021/11/26 04:57:35;;;;;;;19.23;14.60;;;5.60;99.90;;;;;;5032240;28;20260;-85
2021/11/26 05:00:02;;;;;;;20.07;12.50;;;5.60;99.90;;;;;;5031345;28;20539;-84
2021/11/26 05:02:28;;;;;;;25.33;12.20;;;5.50;99.90;;;;;;5031780;28;20653;-84
2021/11/26 05:04:54;;;;;;;21.30;12.97;;;5.60;99.90;;;;;;5031407;28;20477;-84
2021/11/26 05:07:21;;;;;;;19.37;12.87;;;5.60;99.90;;;;;;5031606;28;20233;-84
2021/11/26 05:09:47;;;;;;;16.77;12.80;;;5.60;99.90;;;;;;5031141;28;20191;-84
2021/11/26 05:12:13;;;;;;;19.30;11.67;;;5.50;99.90;;;;;;5031479;28;20425;-84
2021/11/26 05:14:39;;;;;;;20.13;12.30;;;5.60;99.90;;;;;;5031056;28;20454;-85
2021/11/26 05:17:05;;;;;;;26.10;14.23;;;5.60;99.90;;;;;;5031441;28;20430;-85
2021/11/26 05:19:30;;;;;;;20.37;13.80;;;5.60;99.90;;;;;;5030855;28;20238;-84
2021/11/26 05:21:56;;;;;;;18.47;12.37;;;5.60;99.90;;;;;;5032630;28;20642;-84
2021/11/26 05:24:22;;;;;;;19.53;12.60;;;5.60;99.90;;;;;;5032265;28;20713;-84
2021/11/26 05:26:48;;;;;;;22.80;13.80;;;5.70;99.90;;;;;;5031141;28;20281;-84
2021/11/26 05:29:14;;;;;;;18.40;11.73;;;5.70;99.90;;;;;;5032053;28;20180;-84
2021/11/26 05:31:40;;;;;;;17.20;11.33;;;5.60;99.90;;;;;;5031203;28;20472;-84
2021/11/26 05:34:07;;;;;;;17.90;12.17;;;5.60;99.90;;;;;;5030757;28;20183;-85
2021/11/26 05:36:34;;;;;;;18.40;11.30;;;5.60;99.90;;;;;;5031093;28;20629;-84
2021/11/26 05:39:00;;;;;;;18.30;12.57;;;5.60;99.90;;;;;;5032030;28;20462;-85
2021/11/26 05:41:26;;;;;;;23.00;12.60;;;5.60;99.90;;;;;;5030862;28;20422;-84
2021/11/26 05:43:52;;;;;;;15.77;11.23;;;5.70;99.90;;;;;;5031914;28;20421;-84
2021/11/26 05:46:17;;;;;;;21.50;11.60;;;5.70;99.90;;;;;;5032097;28;20434;-84
2021/11/26 05:48:43;;;;;;;16.67;11.93;;;5.60;99.90;;;;;;5032015;28;20251;-85
2021/11/26 05:51:09;;;;;;;14.10;10.03;;;5.60;99.90;;;;;;5032499;28;20184;-84
2021/11/26 05:53:34;;;;;;;21.67;12.60;;;5.60;99.90;;;;;;5031103;28;20186;-84
2021/11/26 05:56:00;;;;;;;19.70;11.97;;;5.60;99.90;;;;;;5030954;28;20217;-85
2021/11/26 05:58:27;;;;;;;17.70;11.40;;;5.60;99.90;;;;;;5030878;28;20270;-85
2021/11/26 06:00:53;;;;;;;18.20;11.20;;;5.60;99.90;;;;;;5030303;28;20465;-84
2021/11/26 06:03:19;;;;;;;18.80;10.23;;;5.60;99.90;;;;;;5030656;28;20433;-85
2021/11/26 06:05:45;;;;;;;20.03;11.27;;;5.50;99.90;;;;;;5030585;28;20442;-84
2021/11/26 06:08:10;;;;;;;18.30;10.93;;;5.60;99.90;;;;;;5031955;28;20643;-85
2021/11/26 06:10:36;;;;;;;13.40;9.87;;;5.50;99.90;;;;;;5031580;28;20193;-87
2021/11/26 06:13:02;;;;;;;13.57;9.37;;;5.50;99.90;;;;;;5031846;28;20201;-86
2021/11/26 06:15:27;;;;;;;15.70;9.47;;;5.50;99.90;;;;;;5030619;28;20213;-87
2021/11/26 06:17:53;;;;;;;19.73;10.10;;;5.50;99.90;;;;;;5030625;28;20669;-86
2021/11/26 06:20:19;;;;;;;16.00;9.70;;;5.40;99.90;;;;;;5030208;28;20214;-86
2021/11/26 06:22:45;;;;;;;14.43;8.77;;;5.40;99.90;;;;;;5030785;28;20291;-87
2021/11/26 06:25:13;;;;;;;14.10;9.30;;;5.40;99.90;;;;;;5030391;28;20477;-87
2021/11/26 06:27:39;;;;;;;19.73;9.83;;;5.40;99.90;;;;;;5031797;28;20180;-87
2021/11/26 06:30:07;;;;;;;15.10;8.90;;;5.30;99.90;;;;;;5030733;28;20924;-85
2021/11/26 06:32:32;;;;;;;13.03;8.97;;;5.40;99.90;;;;;;5035700;28;20435;-86
2021/11/26 06:34:58;;;;;;;15.70;9.60;;;5.20;99.90;;;;;;5034251;28;20439;-86
2021/11/26 06:37:24;;;;;;;13.50;9.43;;;5.20;99.90;;;;;;5034427;28;20177;-86
2021/11/26 06:39:49;;;;;;;16.23;9.67;;;5.30;99.90;;;;;;5033901;28;20206;-86
2021/11/26 06:42:15;;;;;;;12.23;8.60;;;5.30;99.90;;;;;;5034392;28;20180;-86
2021/11/26 06:44:40;;;;;;;13.70;8.60;;;5.30;99.90;;;;;;5035374;28;20232;-86
2021/11/26 06:47:06;;;;;;;11.80;8.13;;;5.30;99.90;;;;;;5034153;28;20183;-87
2021/11/26 06:49:32;;;;;;;11.23;8.07;;;5.40;99.90;;;;;;5033979;28;20721;-86
2021/11/26 06:51:58;;;;;;;13.77;8.63;;;5.40;99.90;;;;;;5033903;28;20430;-86
2021/11/26 06:54:23;;;;;;;13.80;8.50;;;5.40;99.90;;;;;;5033713;28;20205;-87
2021/11/26 06:56:49;;;;;;;11.27;8.27;;;5.50;99.90;;;;;;5033861;28;20194;-86
2021/11/26 06:59:14;;;;;;;11.60;7.73;;;5.50;99.90;;;;;;5033727;28;20181;-86
2021/11/26 07:01:41;;;;;;;13.40;8.33;;;5.40;99.90;;;;;;5033829;28;20674;-86
2021/11/26 07:04:08;;;;;;;9.20;7.23;;;5.50;99.90;;;;;;5035449;28;20596;-89
2021/11/26 07:06:35;;;;;;;13.43;8.00;;;5.40;99.90;;;;;;5033987;28;20793;-88
2021/11/26 07:09:01;;;;;;;11.97;8.30;;;5.40;99.90;;;;;;5033897;28;20427;-88
2021/11/26 07:11:29;;;;;;;11.20;8.17;;;5.40;99.90;;;;;;5033669;28;20919;-87
2021/11/26 07:13:55;;;;;;;15.90;7.93;;;5.40;99.90;;;;;;5033689;28;20498;-87
2021/11/26 07:16:20;;;;;;;9.80;6.77;;;5.40;99.90;;;;;;5034819;28;20477;-87
2021/11/26 07:18:46;;;;;;;11.40;6.60;;;5.40;99.90;;;;;;5034976;28;20253;-86
2021/11/26 07:21:12;;;;;;;10.23;6.77;;;5.40;99.90;;;;;;5034756;28;20198;-86
2021/11/26 07:23:38;;;;;;;8.73;5.80;;;5.30;99.90;;;;;;5033893;28;20595;-87
2021/11/26 07:29:56;;;;;;;7.30;4.10;;;5.20;99.90;;;;;;4993092;28;20689;-85
2021/11/26 07:35:51;;;;;;;5.70;3.90;;;4.90;99.90;;;;;;5025450;22;20557;-79
2021/11/26 07:38:17;;;;;;;6.40;3.13;;;4.70;99.90;;;;;;5037727;28;20415;-78
2021/11/26 07:40:42;;;;;;;6.00;3.27;;;4.70;99.90;;;;;;5036441;28;20526;-78
2021/11/26 07:43:08;;;;;;;9.33;4.00;;;4.70;99.90;;;;;;5034040;28;20234;-78
2021/11/26 07:45:34;;;;;;;8.73;3.40;;;4.60;99.90;;;;;;5036267;28;20455;-78
2021/11/26 07:48:00;;;;;;;9.83;3.97;;;4.60;99.90;;;;;;5036070;28;20184;-79
2021/11/26 07:50:26;;;;;;;7.03;3.20;;;4.70;99.90;;;;;;5035412;28;20983;-78
2021/11/26 07:52:52;;;;;;;5.60;3.20;;;4.80;99.90;;;;;;5035255;28;20413;-79
2021/11/26 07:55:18;;;;;;;4.63;3.20;;;4.80;99.90;;;;;;5035512;28;20446;-79
2021/11/26 07:57:45;;;;;;;8.60;4.40;;;5.00;99.90;;;;;;5035636;28;20664;-79
2021/11/26 08:00:12;;;;;;;8.60;4.40;;;5.00;99.90;;;;;;5035059;28;20206;-78
2021/11/26 08:02:38;;;;;;;9.03;5.20;;;5.00;99.90;;;;;;5035362;28;20433;-79
2021/11/26 08:05:04;;;;;;;7.37;4.67;;;5.00;99.90;;;;;;5034937;28;20450;-79
2021/11/26 08:07:30;;;;;;;8.00;4.67;;;5.10;99.90;;;;;;5034822;28;20428;-78
2021/11/26 08:09:56;;;;;;;9.50;6.20;;;5.20;99.90;;;;;;5035020;28;20431;-78
2021/11/26 08:12:22;;;;;;;12.50;6.40;;;5.20;99.90;;;;;;5034319;28;20183;-79
2021/11/26 08:14:51;;;;;;;11.03;5.80;;;5.20;99.90;;;;;;5034711;28;20412;-78
2021/11/26 08:17:17;;;;;;;10.00;6.00;;;5.30;99.90;;;;;;5034528;28;20459;-79
2021/11/26 08:19:43;;;;;;;14.47;7.87;;;5.40;99.90;;;;;;5033909;28;21077;-79
2021/11/26 08:22:09;;;;;;;13.10;8.30;;;5.50;99.90;;;;;;5033387;28;20443;-76
2021/11/26 08:24:35;;;;;;;12.73;8.90;;;5.60;99.90;;;;;;5032185;28;20782;-79
2021/11/26 08:27:03;;;;;;;12.33;7.03;;;5.60;99.90;;;;;;5034340;28;20882;-79
2021/11/26 08:29:29;;;;;;;12.70;8.27;;;5.60;99.90;;;;;;5033608;28;20431;-76
2021/11/26 08:31:55;;;;;;;12.50;8.20;;;5.70;99.90;;;;;;5031895;28;20417;-76
2021/11/26 08:34:20;;;;;;;11.80;8.60;;;5.70;99.90;;;;;;5031718;28;20187;-76
2021/11/26 08:36:46;;;;;;;14.50;8.80;;;5.80;99.90;;;;;;5031978;28;20444;-76
2021/11/26 08:39:12;;;;;;;14.97;8.90;;;5.80;99.90;;;;;;5032125;28;20182;-78
2021/11/26 08:41:38;;;;;;;24.77;9.20;;;5.80;99.90;;;;;;5032833;28;20554;-77
2021/11/26 08:44:05;;;;;;;13.97;9.00;;;5.80;99.90;;;;;;5032392;28;20697;-77
2021/11/26 08:46:31;;;;;;;19.10;9.57;;;5.80;99.90;;;;;;5031574;28;20200;-77
2021/11/26 08:48:57;;;;;;;18.30;9.57;;;5.80;99.90;;;;;;5032000;28;20432;-78
2021/11/26 08:51:26;;;;;;;15.00;9.17;;;5.80;99.90;;;;;;5031562;28;20941;-77
2021/11/26 08:53:52;;;;;;;19.07;10.80;;;5.80;99.90;;;;;;5031711;28;20195;-78
2021/11/26 08:56:20;;;;;;;14.43;10.50;;;5.90;99.90;;;;;;5035573;28;20451;-80
2021/11/26 08:58:47;;;;;;;16.57;10.10;;;5.90;99.90;;;;;;5035773;28;20182;-79
2021/11/26 09:01:14;;;;;;;15.27;8.20;;;5.90;99.90;;;;;;5035558;28;20560;-79
2021/11/26 09:03:40;;;;;;;15.60;9.43;;;5.80;99.90;;;;;;5035618;28;20517;-79
2021/11/26 09:06:05;;;;;;;20.03;9.07;;;5.80;99.90;;;;;;5034203;28;20476;-76
2021/11/26 09:08:31;;;;;;;19.23;8.93;;;5.70;99.90;;;;;;5031488;28;20216;-79
2021/11/26 09:10:58;;;;;;;11.80;7.30;;;5.90;99.90;;;;;;5036244;28;20215;-79
2021/11/26 09:13:24;;;;;;;18.87;7.93;;;5.80;99.90;;;;;;5031062;28;20219;-79
2021/11/26 09:15:49;;;;;;;16.80;7.33;;;5.80;99.90;;;;;;5033030;28;20948;-80
2021/11/26 09:18:16;;;;;;;20.30;9.10;;;5.80;99.90;;;;;;5037283;28;20436;-79
2021/11/26 09:20:43;;;;;;;19.33;8.20;;;5.80;99.90;;;;;;5035507;28;20219;-80
2021/11/26 09:23:10;;;;;;;12.30;7.13;;;5.80;99.90;;;;;;5036044;28;20418;-78
2021/11/26 09:25:37;;;;;;;19.87;7.50;;;5.80;99.90;;;;;;5035816;28;20859;-79
2021/11/26 09:28:03;;;;;;;18.40;8.60;;;5.70;99.90;;;;;;5037112;28;20416;-79
2021/11/26 09:30:31;;;;;;;15.27;7.67;;;5.60;99.90;;;;;;5036592;28;20520;-79
2021/11/26 09:32:58;;;;;;;13.87;7.80;;;5.60;99.90;;;;;;5035601;28;20421;-79
2021/11/26 09:35:26;;;;;;;13.50;7.30;;;5.60;99.90;;;;;;5035074;28;20972;-79
2021/11/26 09:37:52;;;;;;;15.67;8.37;;;5.60;99.90;;;;;;5036226;28;20455;-80
2021/11/26 09:40:19;;;;;;;21.60;8.93;;;5.60;99.90;;;;;;5035378;28;20948;-79
2021/11/26 09:42:45;;;;;;;13.03;8.00;;;5.70;99.90;;;;;;5035152;28;20510;-80
2021/11/26 09:45:17;;;;;;;17.03;9.17;;;5.80;99.90;;;;;;5032450;28;20899;-80
2021/11/26 09:47:43;;;;;;;20.63;9.70;;;5.70;99.90;;;;;;5035944;28;20424;-80
2021/11/26 09:50:09;;;;;;;22.83;8.80;;;5.80;99.90;;;;;;5035297;28;20441;-79
2021/11/26 09:52:40;;;;;;;15.43;8.73;;;5.80;99.90;;;;;;5034247;28;20188;-79
2021/11/26 09:55:08;;;;;;;20.30;8.90;;;5.90;99.90;;;;;;5037016;28;20429;-79
2021/11/26 09:57:35;;;;;;;15.03;8.50;;;6.00;99.90;;;;;;5030127;28;20450;-76
2021/11/26 10:00:02;;;;;;;16.83;9.63;;;6.00;99.90;;;;;;5029659;28;20581;-76
2021/11/26 10:02:28;;;;;;;12.63;8.07;;;6.00;99.90;;;;;;5029963;28;20428;-75
2021/11/26 10:05:03;;;;;;;16.70;8.93;;;6.00;99.90;;;;;;5030012;28;20940;-78
2021/11/26 10:07:29;;;;;;;21.93;9.77;;;5.90;99.90;;;;;;5034554;28;20495;-78
2021/11/26 10:10:09;;;;;;;14.20;8.33;;;5.90;99.90;;;;;;5034369;28;20430;-78
2021/11/26 10:12:35;;;;;;;15.67;7.60;;;5.90;99.90;;;;;;5034379;28;20440;-79
2021/11/26 10:15:01;;;;;;;14.53;8.43;;;6.00;99.90;;;;;;5034729;28;20422;-78
2021/11/26 10:17:27;;;;;;;15.17;8.90;;;6.00;99.90;;;;;;5034211;28;20457;-79
2021/11/26 10:19:56;;;;;;;18.67;9.00;;;6.10;99.90;;;;;;5034660;28;20489;-78
2021/11/26 10:22:22;;;;;;;14.70;8.93;;;6.10;99.90;;;;;;5035422;28;20234;-78
2021/11/26 10:25:08;;;;;;;14.20;7.40;;;6.10;99.90;;;;;;5034465;28;20437;-79
2021/11/26 10:27:57;;;;;;;14.20;6.67;;;6.00;99.90;;;;;;5034447;28;20449;-78
2021/11/26 10:30:27;;;;;;;10.07;5.87;;;6.00;99.90;;;;;;5033380;28;20919;-78
2021/11/26 10:33:04;;;;;;;13.73;6.77;;;5.90;99.90;;;;;;5033037;28;20820;-78
2021/11/26 10:35:41;;;;;;;12.00;6.10;;;5.70;99.90;;;;;;5033002;28;20530;-79
2021/11/26 10:38:15;;;;;;;14.97;6.70;;;5.70;99.90;;;;;;5034086;28;20433;-79
2021/11/26 10:40:48;;;;;;;13.60;6.63;;;5.70;99.90;;;;;;5034607;28;20478;-79
2021/11/26 10:43:24;;;;;;;13.70;6.80;;;5.80;99.90;;;;;;5033284;28;20429;-78
2021/11/26 10:59:09;;;;;;;9.10;4.90;;;5.60;99.90;;;;;;5034315;28;20482;-84
2021/11/26 11:01:43;;;;;;;8.27;4.70;;;5.50;99.90;;;;;;5034476;28;20425;-84
2021/11/26 11:04:17;;;;;;;8.53;4.83;;;5.60;99.90;;;;;;5033511;28;20421;-84
2021/11/26 11:06:43;;;;;;;11.50;6.30;;;5.70;99.90;;;;;;5032815;28;20447;-84
2021/11/26 11:09:11;;;;;;;7.87;4.40;;;5.70;99.90;;;;;;5032758;28;20515;-85
2021/11/26 11:11:50;;;;;;;11.80;5.07;;;5.80;99.90;;;;;;5032324;28;20179;-83
2021/11/26 11:14:21;;;;;;;8.40;6.90;;;5.90;99.90;;;;;;5033135;28;20832;-84
2021/11/26 11:16:48;;;;;;;8.73;4.57;;;5.90;99.90;;;;;;5034764;28;20444;-84
2021/11/26 11:19:15;;;;;;;6.80;3.50;;;5.90;99.90;;;;;;5038860;28;20413;-83
2021/11/26 11:21:41;;;;;;;8.10;4.53;;;5.90;99.90;;;;;;5037289;28;20420;-86
2021/11/26 11:24:06;;;;;;;8.00;3.70;;;5.90;99.90;;;;;;5040652;28;20447;-84
2021/11/26 11:26:32;;;;;;;6.77;3.33;;;5.90;99.90;;;;;;5041266;28;20452;-84
2021/11/26 11:28:58;;;;;;;7.97;4.63;;;6.00;99.90;;;;;;5042151;28;20182;-85
2021/11/26 11:31:24;;;;;;;6.40;3.23;;;6.00;99.90;;;;;;5041986;28;20176;-84
2021/11/26 11:33:51;;;;;;;5.97;3.00;;;6.00;99.90;;;;;;5040281;28;20186;-84
2021/11/26 11:36:17;;;;;;;6.67;3.23;;;6.00;99.90;;;;;;5039557;28;20521;-85
2021/11/26 11:38:42;;;;;;;7.30;2.73;;;6.00;99.90;;;;;;5040833;28;20417;-85
2021/11/26 11:41:10;;;;;;;5.53;3.20;;;6.10;99.90;;;;;;5040457;28;20211;-86
2021/11/26 11:43:45;;;;;;;7.07;2.60;;;6.10;99.90;;;;;;5038996;28;20191;-84
2021/11/26 11:46:12;;;;;;;6.70;2.50;;;6.10;99.90;;;;;;5040130;28;20525;-84
2021/11/26 11:48:44;;;;;;;6.33;3.07;;;6.10;99.90;;;;;;5038814;28;20437;-84
2021/11/26 11:51:30;;;;;;;7.20;3.43;;;6.10;99.90;;;;;;5036524;28;20440;-83
2021/11/26 11:54:12;;;;;;;7.33;2.17;;;6.30;99.90;;;;;;5038306;28;20436;-83
2021/11/26 11:56:44;;;;;;;5.47;2.87;;;6.40;99.90;;;;;;5036019;28;20976;-83
2021/11/26 11:59:10;;;;;;;4.07;2.70;;;6.40;99.90;;;;;;5037457;28;20442;-82
2021/11/26 12:01:43;;;;;;;8.60;2.40;;;6.50;99.90;;;;;;5036838;28;20441;-83
2021/11/26 12:04:18;;;;;;;5.53;2.77;;;6.30;99.90;;;;;;5037280;28;20434;-84
2021/11/26 12:06:46;;;;;;;7.37;2.10;;;6.40;99.90;;;;;;5037595;28;20446;-81
2021/11/26 12:09:31;;;;;;;6.17;3.00;;;6.30;99.90;;;;;;5034444;28;20425;-81
2021/11/26 12:12:07;;;;;;;5.00;2.03;;;6.20;99.90;;;;;;5034532;28;20411;-82
2021/11/26 12:14:51;;;;;;;4.60;2.33;;;6.20;99.90;;;;;;5034639;28;20554;-84
2021/11/26 12:17:35;;;;;;;4.50;2.70;;;6.20;99.90;;;;;;5033366;28;20422;-82
2021/11/26 12:20:08;;;;;;;5.27;2.07;;;6.30;99.90;;;;;;5039351;28;20607;-82
2021/11/26 12:22:51;;;;;;;3.10;1.97;;;6.30;99.90;;;;;;5039082;28;20424;-82
2021/11/26 12:25:33;;;;;;;4.67;2.10;;;6.30;99.90;;;;;;5033697;28;20449;-83
2021/11/26 12:28:04;;;;;;;8.27;2.53;;;6.30;99.90;;;;;;5032400;28;20806;-82
2021/11/26 12:30:30;;;;;;;6.97;2.03;;;6.50;99.90;;;;;;5035165;28;20409;-85
2021/11/26 12:32:57;;;;;;;3.37;1.87;;;6.70;99.90;;;;;;5037370;28;20848;-86
2021/11/26 12:35:23;;;;;;;7.33;2.50;;;6.80;99.90;;;;;;5034207;28;20455;-85
2021/11/26 12:37:56;;;;;;;6.07;2.00;;;6.90;99.90;;;;;;5032586;28;20419;-87
2021/11/26 12:40:24;;;;;;;3.80;1.80;;;7.10;99.90;;;;;;5033614;28;20469;-84
2021/11/26 12:43:02;;;;;;;5.50;3.43;;;7.00;99.90;;;;;;5038265;28;20513;-84
2021/11/26 12:45:34;;;;;;;4.50;2.37;;;7.00;99.90;;;;;;5037446;28;20458;-85
2021/11/26 12:48:06;;;;;;;4.37;1.80;;;7.00;99.90;;;;;;5037619;28;20430;-86
2021/11/26 12:53:20;;;;;;;5.40;1.97;;;6.90;99.90;;;;;;5035253;28;20456;-86
2021/11/26 12:56:01;;;;;;;4.20;1.87;;;6.90;99.90;;;;;;5036129;28;20469;-85
2021/11/26 12:58:29;;;;;;;4.77;2.10;;;7.00;99.90;;;;;;5035628;28;20427;-84
2021/11/26 13:01:04;;;;;;;7.70;2.30;;;6.90;99.90;;;;;;5036804;28;20903;-85
2021/11/26 13:03:33;;;;;;;7.07;2.80;;;6.80;99.90;;;;;;5035214;28;20415;-85
2021/11/26 13:06:01;;;;;;;6.10;2.30;;;6.80;99.90;;;;;;5034444;28;20439;-85
2021/11/26 13:08:30;;;;;;;4.80;2.90;;;6.60;99.90;;;;;;5034613;28;20937;-86
2021/11/26 13:11:00;;;;;;;4.57;2.00;;;6.70;99.90;;;;;;5033594;28;20517;-84
2021/11/26 13:13:27;;;;;;;5.67;2.43;;;6.70;99.90;;;;;;5032630;28;20807;-85
2021/11/26 13:15:53;;;;;;;6.57;2.37;;;6.70;99.90;;;;;;5033971;28;20585;-85
2021/11/26 13:18:24;;;;;;;8.80;2.37;;;6.70;99.90;;;;;;5032832;28;20525;-85
2021/11/26 13:20:57;;;;;;;8.67;2.77;;;6.70;99.90;;;;;;5032392;28;20213;-84
2021/11/26 13:23:28;;;;;;;4.53;2.53;;;6.60;99.90;;;;;;5032325;28;20429;-84
2021/11/26 13:25:57;;;;;;;4.90;1.73;;;6.70;99.90;;;;;;5034045;28;20539;-84
2021/11/26 13:28:28;;;;;;;5.83;2.90;;;6.70;99.90;;;;;;5033735;28;20416;-84
2021/11/26 13:30:55;;;;;;;4.10;2.13;;;6.60;99.90;;;;;;5033600;28;20764;-84
2021/11/26 13:33:23;;;;;;;4.03;2.33;;;6.60;99.90;;;;;;5031844;28;20432;-84
2021/11/26 13:35:51;;;;;;;8.30;2.03;;;6.60;99.90;;;;;;5033291;28;20505;-84
2021/11/26 13:38:25;;;;;;;3.73;2.03;;;6.70;99.90;;;;;;5031567;28;20509;-85
2021/11/26 13:40:55;;;;;;;5.17;2.30;;;6.70;99.90;;;;;;5030583;28;20476;-85
2021/11/26 13:43:26;;;;;;;3.50;1.93;;;6.70;99.90;;;;;;5031505;28;20416;-84